Time;durP1;ratioP1;P1;durP2;ratioP2;P2;SDS_P1;SDS_P2;PMS_P1;PMS_P2;Temp;Humidity;BMP_temperature;BMP_pressure;BME280_temperature;BME280_humidity;BME280_pressure;Samples;Min_cycle;Max_cycle;Signal;HPM_P1;HPM_P2
2020/12/01 00:01:51;;;;;;;19.87;12.97;;;4.80;99.90;;;;;;5055987;28;20196;-61
2020/12/01 00:04:16;;;;;;;20.45;13.75;;;4.90;99.90;;;;;;5055739;28;20175;-60
2020/12/01 00:06:42;;;;;;;24.23;13.47;;;4.90;99.90;;;;;;5055837;28;20212;-61
2020/12/01 00:09:08;;;;;;;19.47;12.50;;;4.90;99.90;;;;;;5055868;28;20189;-61
2020/12/01 00:11:33;;;;;;;22.60;13.93;;;5.00;99.90;;;;;;5055627;28;20447;-61
2020/12/01 00:13:59;;;;;;;19.13;13.13;;;5.00;99.90;;;;;;5054932;28;20548;-61
2020/12/01 00:16:24;;;;;;;25.57;13.90;;;5.00;99.90;;;;;;5054700;28;20177;-61
2020/12/01 00:18:51;;;;;;;23.60;13.10;;;4.90;99.90;;;;;;5055744;28;20571;-61
2020/12/01 00:21:19;;;;;;;25.95;14.18;;;4.90;99.90;;;;;;5056056;28;20192;-62
2020/12/01 00:23:46;;;;;;;25.92;13.68;;;4.90;99.90;;;;;;5055214;28;20189;-62
2020/12/01 00:26:16;;;;;;;28.10;15.57;;;4.90;99.90;;;;;;5055536;28;20550;-62
2020/12/01 00:28:41;;;;;;;24.73;15.00;;;4.90;99.90;;;;;;5055327;28;20189;-62
2020/12/01 00:31:07;;;;;;;31.30;16.93;;;4.90;99.90;;;;;;5055771;28;20181;-62
2020/12/01 00:33:32;;;;;;;23.20;13.33;;;4.80;99.90;;;;;;5055198;28;20272;-62
2020/12/01 00:35:58;;;;;;;25.13;14.83;;;4.90;99.90;;;;;;5055522;28;20360;-62
2020/12/01 00:38:24;;;;;;;26.70;14.77;;;5.00;99.90;;;;;;5055276;28;20594;-62
2020/12/01 00:40:50;;;;;;;30.07;16.40;;;5.00;99.90;;;;;;5054143;28;20431;-62
2020/12/01 00:43:16;;;;;;;24.20;14.57;;;5.00;99.90;;;;;;5055010;28;20224;-62
2020/12/01 00:45:43;;;;;;;27.75;16.70;;;5.00;99.90;;;;;;5055334;28;20590;-63
2020/12/01 00:48:08;;;;;;;27.50;16.02;;;5.00;99.90;;;;;;5055274;28;20205;-62
2020/12/01 00:50:33;;;;;;;32.23;17.47;;;4.90;99.90;;;;;;5055162;28;20170;-60
2020/12/01 00:52:59;;;;;;;25.93;16.83;;;4.80;99.90;;;;;;5055177;28;20648;-60
2020/12/01 00:55:25;;;;;;;39.03;21.03;;;4.90;99.90;;;;;;5055021;28;20185;-62
2020/12/01 00:57:50;;;;;;;26.73;16.27;;;4.90;99.90;;;;;;5055005;28;20519;-61
2020/12/01 01:00:19;;;;;;;25.17;16.13;;;4.90;99.90;;;;;;5055085;28;20594;-61
2020/12/01 01:02:44;;;;;;;27.23;15.98;;;5.00;99.90;;;;;;5054875;28;20189;-62
2020/12/01 01:05:11;;;;;;;24.47;14.80;;;4.90;99.90;;;;;;5053648;28;20613;-62
2020/12/01 01:07:36;;;;;;;24.70;15.30;;;4.90;99.90;;;;;;5054864;28;20676;-62
2020/12/01 01:10:03;;;;;;;27.07;16.80;;;5.10;99.90;;;;;;5054775;28;20213;-62
2020/12/01 01:12:29;;;;;;;24.83;14.90;;;5.10;99.90;;;;;;5054848;28;20624;-62
2020/12/01 01:14:54;;;;;;;25.07;15.00;;;5.00;99.90;;;;;;5054657;28;20186;-62
2020/12/01 01:17:20;;;;;;;29.97;16.03;;;5.00;99.90;;;;;;5053705;28;20238;-63
2020/12/01 01:19:45;;;;;;;23.77;14.37;;;4.90;99.90;;;;;;5054853;28;20185;-62
2020/12/01 01:22:11;;;;;;;31.47;16.47;;;4.90;99.90;;;;;;5054646;28;20489;-62
2020/12/01 01:24:36;;;;;;;30.00;17.43;;;5.00;99.90;;;;;;5054364;28;20185;-62
2020/12/01 01:27:02;;;;;;;27.77;16.60;;;5.00;99.90;;;;;;5054467;28;20193;-61
2020/12/01 01:29:27;;;;;;;27.30;15.20;;;4.90;99.90;;;;;;5054678;28;20173;-62
2020/12/01 01:31:54;;;;;;;24.23;16.10;;;4.90;99.90;;;;;;5054775;28;20188;-61
2020/12/01 01:34:20;;;;;;;26.70;14.80;;;4.90;99.90;;;;;;5054337;28;20181;-61
2020/12/01 01:36:46;;;;;;;27.43;16.10;;;4.90;99.90;;;;;;5054620;28;20656;-62
2020/12/01 01:39:12;;;;;;;29.53;15.17;;;4.80;99.90;;;;;;5053507;28;20431;-62
2020/12/01 01:41:38;;;;;;;27.87;16.43;;;4.90;99.90;;;;;;5053158;28;20442;-61
2020/12/01 01:44:25;;;;;;;24.33;15.07;;;4.90;99.90;;;;;;5054258;28;20438;-61
2020/12/01 01:47:00;;;;;;;24.25;14.73;;;4.90;99.90;;;;;;5052990;28;20201;-61
2020/12/01 01:49:35;;;;;;;29.88;16.73;;;5.00;99.90;;;;;;5054262;28;20181;-62
2020/12/01 01:52:01;;;;;;;25.92;16.25;;;5.00;99.90;;;;;;5053970;28;20154;-62
2020/12/01 01:54:27;;;;;;;28.70;16.33;;;5.00;99.90;;;;;;5054027;28;20174;-62
2020/12/01 01:56:58;;;;;;;25.75;15.60;;;5.10;99.90;;;;;;5053940;28;20569;-62
2020/12/01 01:59:27;;;;;;;26.63;15.32;;;5.00;99.90;;;;;;5054040;28;20517;-61
2020/12/01 02:01:53;;;;;;;23.75;14.82;;;5.00;99.90;;;;;;5053113;28;20185;-61
2020/12/01 02:04:19;;;;;;;26.55;17.80;;;5.10;99.90;;;;;;5053747;28;20173;-61
2020/12/01 02:06:51;;;;;;;29.87;16.60;;;5.10;99.90;;;;;;5053980;28;20625;-61
2020/12/01 02:09:29;;;;;;;27.77;16.38;;;5.20;99.90;;;;;;5054364;28;20177;-61
2020/12/01 02:11:57;;;;;;;27.02;15.55;;;5.20;99.90;;;;;;5053986;28;20181;-61
2020/12/01 02:14:27;;;;;;;24.45;16.80;;;5.20;99.90;;;;;;5055772;28;20178;-62
2020/12/01 02:16:57;;;;;;;34.63;17.73;;;5.20;99.90;;;;;;5053753;28;20243;-61
2020/12/01 02:19:26;;;;;;;27.02;15.50;;;5.10;99.90;;;;;;5054049;28;20189;-62
2020/12/01 02:21:53;;;;;;;29.60;16.55;;;5.10;99.90;;;;;;5053930;28;20617;-62
2020/12/01 02:24:21;;;;;;;27.90;18.10;;;5.10;99.90;;;;;;5053713;28;20196;-62
2020/12/01 02:26:50;;;;;;;31.10;17.70;;;5.10;99.90;;;;;;5053863;28;20197;-61
2020/12/01 02:29:20;;;;;;;26.75;16.10;;;5.00;99.90;;;;;;5053839;28;20185;-61
2020/12/01 02:31:45;;;;;;;29.35;18.45;;;5.20;99.90;;;;;;5053757;28;20177;-62
2020/12/01 02:34:14;;;;;;;25.40;14.27;;;5.20;99.90;;;;;;5053486;28;20231;-62
2020/12/01 02:36:39;;;;;;;31.02;18.13;;;5.10;99.90;;;;;;5053917;28;20192;-62
2020/12/01 02:39:07;;;;;;;31.40;17.53;;;5.10;99.90;;;;;;5053805;28;20706;-62
2020/12/01 02:41:33;;;;;;;28.45;16.35;;;5.10;99.90;;;;;;5053701;28;20181;-62
2020/12/01 02:43:59;;;;;;;26.48;16.25;;;5.00;99.90;;;;;;5053368;28;20178;-62
2020/12/01 02:46:32;;;;;;;33.70;18.00;;;5.00;99.90;;;;;;5053672;28;20235;-62
2020/12/01 02:48:58;;;;;;;29.98;17.05;;;5.00;99.90;;;;;;5053572;28;20629;-62
2020/12/01 02:51:24;;;;;;;29.17;16.90;;;5.20;99.90;;;;;;5052305;28;20181;-62
2020/12/01 02:53:49;;;;;;;28.90;17.10;;;5.20;99.90;;;;;;5053276;28;20177;-62
2020/12/01 02:56:14;;;;;;;27.33;16.57;;;5.30;99.90;;;;;;5053440;28;20208;-62
2020/12/01 02:58:40;;;;;;;26.83;16.90;;;5.10;99.90;;;;;;5053483;28;20650;-62
2020/12/01 03:01:05;;;;;;;30.77;16.57;;;5.10;99.90;;;;;;5053735;28;20180;-62
2020/12/01 03:03:31;;;;;;;29.77;17.17;;;5.10;99.90;;;;;;5053507;28;20182;-62
2020/12/01 03:05:56;;;;;;;29.47;17.07;;;5.10;99.90;;;;;;5057020;28;20189;-61
2020/12/01 03:08:22;;;;;;;27.23;16.90;;;5.20;99.90;;;;;;5056908;28;20499;-61
2020/12/01 03:10:47;;;;;;;25.43;15.60;;;5.30;99.90;;;;;;5057149;28;20177;-61
2020/12/01 03:13:13;;;;;;;31.50;18.13;;;5.30;99.90;;;;;;5056597;28;20503;-61
2020/12/01 03:15:38;;;;;;;29.53;16.37;;;5.30;99.90;;;;;;5057066;28;20238;-61
2020/12/01 03:18:04;;;;;;;26.43;17.03;;;5.30;99.90;;;;;;5056939;28;20664;-60
2020/12/01 03:20:29;;;;;;;25.90;15.47;;;5.20;99.90;;;;;;5057041;28;20185;-60
2020/12/01 03:22:55;;;;;;;29.03;16.07;;;5.10;99.90;;;;;;5056914;28;20225;-61
2020/12/01 03:25:20;;;;;;;28.77;17.63;;;5.20;99.90;;;;;;5056572;28;20185;-61
2020/12/01 03:27:46;;;;;;;28.27;16.97;;;5.30;99.90;;;;;;5056630;28;20280;-61
2020/12/01 03:30:12;;;;;;;25.50;14.90;;;5.20;99.90;;;;;;5056700;28;20181;-61
2020/12/01 03:32:37;;;;;;;23.00;15.23;;;5.20;99.90;;;;;;5056657;28;20194;-61
2020/12/01 03:35:03;;;;;;;29.37;16.27;;;5.20;99.90;;;;;;5056470;28;20750;-62
2020/12/01 03:37:29;;;;;;;24.33;14.00;;;5.30;99.90;;;;;;5056624;28;20243;-61
2020/12/01 03:39:54;;;;;;;27.27;15.10;;;5.50;99.90;;;;;;5056653;28;20462;-62
2020/12/01 03:42:19;;;;;;;26.17;16.60;;;5.50;99.90;;;;;;5056405;28;20181;-62
2020/12/01 03:44:45;;;;;;;21.63;14.77;;;5.60;99.90;;;;;;5056318;28;20180;-62
2020/12/01 03:47:11;;;;;;;24.03;13.83;;;5.50;99.90;;;;;;5056256;28;20211;-62
2020/12/01 03:49:37;;;;;;;29.60;16.87;;;5.50;99.90;;;;;;5056476;28;20794;-61
2020/12/01 03:52:02;;;;;;;27.80;17.53;;;5.50;99.90;;;;;;5056425;28;20341;-61
2020/12/01 03:54:28;;;;;;;28.20;15.30;;;5.60;99.90;;;;;;5056222;28;20489;-61
2020/12/01 03:56:53;;;;;;;24.13;15.20;;;5.60;99.90;;;;;;5056136;28;20231;-62
2020/12/01 03:59:19;;;;;;;24.53;13.87;;;5.70;99.90;;;;;;5056255;28;20188;-62
2020/12/01 04:01:44;;;;;;;25.00;15.20;;;5.60;99.90;;;;;;5056087;28;20218;-62
2020/12/01 04:04:10;;;;;;;24.67;15.20;;;5.60;99.90;;;;;;5055840;28;20185;-61
2020/12/01 04:06:35;;;;;;;25.60;15.20;;;5.50;99.90;;;;;;5055972;28;20209;-61
2020/12/01 04:09:03;;;;;;;24.07;15.10;;;5.50;99.90;;;;;;5055967;28;20188;-60
2020/12/01 04:11:28;;;;;;;24.67;14.65;;;5.60;99.90;;;;;;5055869;28;20173;-61
2020/12/01 04:13:54;;;;;;;26.90;15.70;;;5.60;99.90;;;;;;5055532;28;20280;-61
2020/12/01 04:16:19;;;;;;;23.93;14.63;;;5.50;99.90;;;;;;5055547;28;20213;-62
2020/12/01 04:18:45;;;;;;;25.93;16.30;;;5.50;99.90;;;;;;5055728;28;20618;-62
2020/12/01 04:21:11;;;;;;;22.10;13.57;;;5.60;99.90;;;;;;5055858;28;20592;-61
2020/12/01 04:23:36;;;;;;;27.20;15.77;;;5.60;99.90;;;;;;5055567;28;20516;-62
2020/12/01 04:26:02;;;;;;;24.10;14.90;;;5.60;99.90;;;;;;5055446;28;20423;-62
2020/12/01 04:28:27;;;;;;;23.63;15.83;;;5.90;99.90;;;;;;5055527;28;20249;-62
2020/12/01 04:30:53;;;;;;;26.43;15.50;;;6.00;99.90;;;;;;5055484;28;20181;-62
2020/12/01 04:33:18;;;;;;;25.93;14.60;;;6.00;99.90;;;;;;5055398;28;20533;-64
2020/12/01 04:35:44;;;;;;;23.80;14.70;;;6.10;76.90;;;;;;5054164;28;20174;-63
2020/12/01 04:38:10;;;;;;;27.77;15.10;;;6.20;48.20;;;;;;5055166;28;20621;-61
2020/12/01 04:40:38;;;;;;;22.47;13.93;;;6.20;14.00;;;;;;5055175;28;20259;-61
2020/12/01 04:43:13;;;;;;;25.77;15.40;;;6.20;1.00;;;;;;5055351;28;20423;-61
2020/12/01 04:45:41;;;;;;;23.20;15.75;;;6.10;1.00;;;;;;5053824;28;20180;-62
2020/12/01 04:48:19;;;;;;;26.27;15.15;;;6.20;1.00;;;;;;5054936;28;20649;-61
2020/12/01 04:50:57;;;;;;;25.70;15.10;;;5.80;1.00;;;;;;5055064;28;20267;-61
2020/12/01 04:54:20;;;;;;;29.05;16.40;;;5.90;1.00;;;;;;5054672;28;20185;-61
2020/12/01 04:57:15;;;;;;;27.10;15.80;;;6.00;1.00;;;;;;5053705;28;20281;-61
2020/12/01 05:00:24;;;;;;;27.33;15.07;;;5.70;1.00;;;;;;5055032;28;20189;-62
2020/12/01 05:03:03;;;;;;;22.65;13.60;;;5.60;1.00;;;;;;5054960;28;20173;-62
2020/12/01 05:06:32;;;;;;;25.20;13.98;;;5.40;2.70;;;;;;5054885;28;20188;-62
2020/12/01 05:08:38;;;;;;;22.08;13.60;;;5.50;56.50;;;;;;5057572;28;20228;-62
2020/12/01 05:11:23;;;;;;;26.27;14.68;;;5.60;91.00;;;;;;5054908;28;20188;-62
2020/12/01 05:13:59;;;;;;;26.55;16.13;;;5.80;99.40;;;;;;5054525;28;20629;-62
2020/12/01 05:16:41;;;;;;;23.85;14.90;;;5.90;99.90;;;;;;5054797;28;20209;-62
2020/12/01 05:19:33;;;;;;;24.08;14.85;;;6.00;95.40;;;;;;5053658;28;20212;-63
2020/12/01 05:21:59;;;;;;;24.55;14.85;;;6.10;72.60;;;;;;5055000;28;20269;-63
2020/12/01 05:24:45;;;;;;;22.47;14.20;;;6.30;48.40;;;;;;5054533;28;20201;-63
2020/12/01 05:27:22;;;;;;;26.50;14.75;;;6.00;1.00;;;;;;5054079;28;20653;-63
2020/12/01 05:30:11;;;;;;;27.70;16.80;;;6.00;1.00;;;;;;5054494;28;20180;-63
2020/12/01 05:32:41;;;;;;;27.00;16.00;;;5.70;1.00;;;;;;5054627;28;20170;-63
2020/12/01 05:35:20;;;;;;;31.20;17.70;;;5.60;1.00;;;;;;5053128;28;20642;-64
2020/12/01 05:37:58;;;;;;;28.23;16.33;;;5.60;13.90;;;;;;5054441;28;20613;-63
2020/12/01 05:40:26;;;;;;;23.05;14.93;;;5.60;35.80;;;;;;5054464;28;20165;-63
2020/12/01 05:42:52;;;;;;;24.33;15.95;;;5.70;51.30;;;;;;5054013;28;20677;-63
2020/12/01 05:45:24;;;;;;;30.30;15.50;;;5.80;67.40;;;;;;5053815;28;20276;-62
2020/12/01 05:48:15;;;;;;;27.00;15.27;;;5.70;68.60;;;;;;5054141;28;20236;-62
2020/12/01 05:50:53;;;;;;;27.90;17.50;;;5.70;74.40;;;;;;5054003;28;20516;-63
2020/12/01 05:53:19;;;;;;;27.17;15.02;;;5.60;63.00;;;;;;5053937;28;20193;-63
2020/12/01 05:55:59;;;;;;;25.05;14.57;;;5.80;90.60;;;;;;5053970;28;20239;-63
2020/12/01 05:58:39;;;;;;;27.00;15.20;;;5.50;74.20;;;;;;5054117;28;20193;-63
2020/12/01 06:01:04;;;;;;;30.92;18.80;;;5.50;90.60;;;;;;5053753;28;20605;-63
2020/12/01 06:03:49;;;;;;;27.20;17.40;;;5.40;96.10;;;;;;5053714;28;20192;-63
2020/12/01 06:06:15;;;;;;;26.98;16.25;;;5.30;99.90;;;;;;5053668;28;20495;-63
2020/12/01 06:08:45;;;;;;;28.43;17.93;;;5.30;99.90;;;;;;5053742;28;20173;-63
2020/12/01 06:11:38;;;;;;;27.38;16.50;;;5.30;99.90;;;;;;5053325;28;20242;-63
2020/12/01 06:14:18;;;;;;;29.58;17.33;;;5.30;99.90;;;;;;5052084;28;20485;-63
2020/12/01 06:17:09;;;;;;;27.67;16.25;;;5.10;99.90;;;;;;5053370;28;20254;-62
2020/12/01 06:19:38;;;;;;;26.58;15.27;;;5.00;99.90;;;;;;5053298;28;20177;-62
2020/12/01 06:22:20;;;;;;;30.17;16.10;;;5.10;99.90;;;;;;5052302;28;20581;-62
2020/12/01 06:25:04;;;;;;;26.95;16.40;;;5.00;99.90;;;;;;5052925;28;20633;-62
2020/12/01 06:27:43;;;;;;;27.50;15.68;;;5.00;99.90;;;;;;5053212;28;20236;-63
2020/12/01 06:30:34;;;;;;;27.50;17.65;;;5.20;99.90;;;;;;5052235;28;20184;-63
2020/12/01 06:33:36;;;;;;;22.30;13.13;;;5.20;99.90;;;;;;5053515;28;20250;-64
2020/12/01 06:36:39;;;;;;;26.15;14.15;;;5.10;99.90;;;;;;5053138;28;20604;-62
2020/12/01 06:39:20;;;;;;;25.10;15.02;;;5.30;99.90;;;;;;5056146;28;20631;-62
2020/12/01 06:42:03;;;;;;;25.00;14.95;;;5.30;99.90;;;;;;5057257;28;20197;-63
2020/12/01 06:44:28;;;;;;;29.33;15.88;;;5.20;99.90;;;;;;5055719;28;20184;-62
2020/12/01 06:46:58;;;;;;;25.97;14.70;;;5.30;99.90;;;;;;5057289;28;20205;-62
2020/12/01 06:49:27;;;;;;;28.90;15.38;;;5.30;99.90;;;;;;5057213;28;20216;-62
2020/12/01 06:51:59;;;;;;;25.08;15.13;;;5.20;99.90;;;;;;5056787;28;20265;-63
2020/12/01 06:54:25;;;;;;;25.20;15.18;;;5.00;99.90;;;;;;5056977;28;20200;-63
2020/12/01 06:56:59;;;;;;;31.63;17.73;;;4.90;99.90;;;;;;5056712;28;20527;-63
2020/12/01 06:59:24;;;;;;;23.45;14.80;;;4.90;99.90;;;;;;5056725;28;20229;-63
2020/12/01 07:01:50;;;;;;;23.23;14.97;;;4.80;99.90;;;;;;5056744;28;20272;-63
2020/12/01 07:04:18;;;;;;;28.00;14.10;;;4.90;99.90;;;;;;5056317;28;20604;-61
2020/12/01 07:06:49;;;;;;;23.17;13.93;;;4.90;99.90;;;;;;5056792;28;20347;-61
2020/12/01 07:09:15;;;;;;;21.42;13.73;;;4.80;99.90;;;;;;5056415;28;20209;-62
2020/12/01 07:12:03;;;;;;;31.10;15.80;;;4.80;99.90;;;;;;5056393;28;20276;-62
2020/12/01 07:14:34;;;;;;;26.45;15.27;;;4.80;99.90;;;;;;5056110;28;20310;-62
2020/12/01 07:17:00;;;;;;;27.35;15.55;;;4.80;99.90;;;;;;5056389;28;20184;-62
2020/12/01 07:19:42;;;;;;;28.97;15.40;;;4.80;99.90;;;;;;5056300;28;20390;-62
2020/12/01 07:22:34;;;;;;;25.45;14.13;;;4.90;99.90;;;;;;5056206;28;20181;-63
2020/12/01 07:25:17;;;;;;;26.35;14.68;;;4.90;99.90;;;;;;5053912;28;20520;-63
2020/12/01 07:28:04;;;;;;;25.23;14.00;;;4.90;99.90;;;;;;5048741;28;20208;-63
2020/12/01 07:30:33;;;;;;;25.60;14.68;;;4.90;99.90;;;;;;5056583;28;20189;-62
2020/12/01 07:32:58;;;;;;;24.38;14.02;;;5.00;99.90;;;;;;5056354;28;20181;-62
2020/12/01 07:35:32;;;;;;;31.00;14.67;;;5.00;99.90;;;;;;5055998;28;20200;-62
2020/12/01 07:38:33;;;;;;;24.92;14.27;;;5.00;99.90;;;;;;5056014;28;20261;-62
2020/12/01 07:41:24;;;;;;;23.67;14.70;;;5.10;99.90;;;;;;5055753;28;20679;-62
2020/12/01 07:44:09;;;;;;;25.05;14.18;;;5.00;99.90;;;;;;5035562;28;20610;-62
2020/12/01 07:49:15;;;;;;;30.08;18.70;;;5.00;99.90;;;;;;5041615;28;20489;-63
2020/12/01 07:51:42;;;;;;;28.65;16.95;;;4.90;99.90;;;;;;5055467;28;20451;-66
2020/12/01 07:54:08;;;;;;;33.78;18.10;;;4.80;99.90;;;;;;5055568;28;20177;-66
2020/12/01 07:56:37;;;;;;;29.15;16.90;;;5.00;99.90;;;;;;5055366;28;20216;-66
2020/12/01 07:59:09;;;;;;;46.63;25.30;;;5.00;99.90;;;;;;5066597;28;20373;-65
2020/12/01 08:01:35;;;;;;;28.65;16.40;;;5.00;99.90;;;;;;5055609;28;20269;-65
2020/12/01 08:04:13;;;;;;;28.17;16.00;;;5.00;99.90;;;;;;5054851;28;20221;-63
2020/12/01 08:06:39;;;;;;;24.85;14.55;;;5.10;99.90;;;;;;5055673;28;20207;-65
2020/12/01 08:09:18;;;;;;;31.50;18.33;;;4.90;99.90;;;;;;5055272;28;20208;-65
2020/12/01 08:11:44;;;;;;;31.25;18.13;;;4.90;99.90;;;;;;5049825;28;20697;-62
2020/12/01 08:14:10;;;;;;;32.65;17.27;;;5.00;99.90;;;;;;5054768;28;20189;-62
2020/12/01 08:16:36;;;;;;;45.70;24.37;;;5.10;99.90;;;;;;5055236;28;20215;-62
2020/12/01 08:19:04;;;;;;;26.73;17.13;;;5.20;99.90;;;;;;5055147;28;20827;-61
2020/12/01 08:21:38;;;;;;;28.40;17.23;;;5.20;99.90;;;;;;5055122;28;20471;-61
2020/12/01 08:24:08;;;;;;;38.00;19.83;;;5.20;99.90;;;;;;5069450;28;20192;-65
2020/12/01 08:26:36;;;;;;;32.38;18.33;;;5.10;99.90;;;;;;5074829;28;20212;-62
2020/12/01 08:29:16;;;;;;;32.10;18.08;;;5.10;99.90;;;;;;5074575;28;20263;-62
2020/12/01 08:32:07;;;;;;;28.33;16.02;;;5.10;99.90;;;;;;5065145;28;20189;-62
2020/12/01 08:34:45;;;;;;;30.90;16.55;;;5.20;99.90;;;;;;5051306;28;20174;-62
2020/12/01 08:37:15;;;;;;;28.25;16.40;;;5.30;99.90;;;;;;5054710;28;20176;-63
2020/12/01 08:40:10;;;;;;;26.88;16.10;;;5.40;99.90;;;;;;5064577;28;20263;-64
2020/12/01 08:42:51;;;;;;;32.65;16.92;;;5.30;99.90;;;;;;5074509;28;20361;-64
2020/12/01 08:45:22;;;;;;;27.40;15.90;;;5.40;99.90;;;;;;5062577;28;20562;-64
2020/12/01 08:47:49;;;;;;;30.92;15.48;;;5.30;99.90;;;;;;5049472;28;20201;-64
2020/12/01 08:50:24;;;;;;;27.42;16.85;;;5.30;99.90;;;;;;5034342;28;20239;-64
2020/12/01 08:52:50;;;;;;;32.08;15.57;;;5.20;99.90;;;;;;5034514;28;20232;-64
2020/12/01 08:55:29;;;;;;;34.03;17.53;;;5.20;99.90;;;;;;5034889;28;20772;-63
2020/12/01 08:58:20;;;;;;;29.88;16.70;;;5.40;99.90;;;;;;5064098;28;20196;-64
2020/12/01 09:00:57;;;;;;;32.50;16.33;;;5.20;99.90;;;;;;5041196;28;20186;-63
2020/12/01 09:03:22;;;;;;;29.20;17.70;;;5.20;99.90;;;;;;5051443;28;20582;-63
2020/12/01 09:05:49;;;;;;;28.27;17.17;;;5.30;99.90;;;;;;5067078;28;20219;-63
2020/12/01 09:08:37;;;;;;;28.75;16.33;;;5.40;99.90;;;;;;5074032;28;20295;-64
2020/12/01 09:11:50;;;;;;;32.55;17.92;;;5.40;99.90;;;;;;5054325;28;20170;-64
2020/12/01 09:20:00;;;;;;;33.03;16.63;;;5.40;99.90;;;;;;5035197;28;20512;-66
2020/12/01 09:22:37;;;;;;;32.50;16.38;;;5.10;99.90;;;;;;5037920;28;20181;-65
2020/12/01 09:25:13;;;;;;;30.33;16.35;;;5.20;99.90;;;;;;5033700;28;20184;-65
2020/12/01 09:27:39;;;;;;;43.55;21.83;;;5.30;99.90;;;;;;5034040;28;20205;-64
2020/12/01 09:30:13;;;;;;;36.90;21.00;;;5.20;99.90;;;;;;5033984;28;20181;-65
2020/12/01 09:32:39;;;;;;;62.55;31.33;;;5.20;99.90;;;;;;5036392;28;20220;-66
2020/12/01 09:35:04;;;;;;;29.33;17.30;;;5.10;99.90;;;;;;5052473;28;20633;-66
2020/12/01 09:37:32;;;;;;;35.63;17.80;;;5.30;99.90;;;;;;5053834;28;20264;-68
2020/12/01 09:39:58;;;;;;;35.60;18.40;;;5.40;99.90;;;;;;5053820;28;20574;-68
2020/12/01 09:42:30;;;;;;;29.50;17.33;;;5.50;99.90;;;;;;5045795;28;20217;-62
2020/12/01 09:45:06;;;;;;;31.92;17.38;;;5.60;99.90;;;;;;5033795;28;20221;-66
2020/12/01 09:49:58;;;;;;;30.97;18.20;;;5.70;99.90;;;;;;5033766;28;20216;-64
2020/12/01 09:52:29;;;;;;;30.87;17.73;;;5.80;99.90;;;;;;5033648;28;20182;-68
2020/12/01 09:55:07;;;;;;;31.98;17.50;;;5.60;56.20;;;;;;5032351;28;20479;-67
2020/12/01 10:00:58;;;;;;;31.60;17.05;;;5.70;42.10;;;;;;5073480;28;20267;-68
2020/12/01 10:08:36;;;;;;;31.73;18.30;;;5.70;53.60;;;;;;5069828;28;20274;-65
2020/12/01 10:13:46;;;;;;;32.30;17.80;;;5.80;8.50;;;;;;5055102;28;20697;-68
2020/12/01 10:19:26;;;;;;;26.38;15.93;;;5.80;1.00;;;;;;5057457;28;20219;-74
2020/12/01 10:37:22;;;;;;;32.85;19.80;;;5.70;1.00;;;;;;5037526;28;20174;-67
2020/12/01 10:39:48;;;;;;;37.20;20.03;;;5.70;1.00;;;;;;5037618;28;20524;-66
2020/12/01 10:42:14;;;;;;;38.00;18.20;;;5.80;1.00;;;;;;5056009;28;20190;-64
2020/12/01 10:44:41;;;;;;;36.00;18.35;;;5.60;1.00;;;;;;5048810;28;20189;-66
2020/12/01 10:47:06;;;;;;;32.50;18.58;;;5.80;1.00;;;;;;5052860;28;20548;-63
2020/12/01 10:49:32;;;;;;;30.80;18.17;;;6.00;1.00;;;;;;5057394;28;20174;-64
2020/12/01 10:51:58;;;;;;;33.08;18.27;;;6.00;1.00;;;;;;5056849;28;20178;-65
2020/12/01 10:54:24;;;;;;;37.57;18.90;;;5.80;1.00;;;;;;5055968;28;20178;-65
2020/12/01 10:56:51;;;;;;;32.53;18.63;;;5.70;1.00;;;;;;5060323;28;20196;-68
2020/12/01 10:59:17;;;;;;;56.95;31.20;;;5.60;1.00;;;;;;5076416;28;20491;-67
2020/12/01 11:01:43;;;;;;;34.22;18.40;;;5.80;1.00;;;;;;5076430;28;20185;-65
2020/12/01 11:04:10;;;;;;;58.78;34.75;;;5.80;1.00;;;;;;5076352;28;20187;-67
2020/12/01 11:06:38;;;;;;;38.47;21.92;;;6.00;1.00;;;;;;5076548;28;20192;-66
2020/12/01 11:09:07;;;;;;;37.30;19.20;;;6.10;1.00;;;;;;5065880;28;20514;-66
2020/12/01 11:11:32;;;;;;;32.80;18.17;;;6.30;1.00;;;;;;5048899;28;20260;-66
2020/12/01 11:13:59;;;;;;;30.53;17.40;;;6.30;1.00;;;;;;5056025;28;20209;-65
2020/12/01 11:16:24;;;;;;;26.92;17.63;;;6.30;1.00;;;;;;5056356;28;20252;-67
2020/12/01 11:18:50;;;;;;;29.23;17.07;;;6.10;1.00;;;;;;5056412;28;20581;-61
2020/12/01 11:21:15;;;;;;;36.37;19.70;;;6.00;1.00;;;;;;5054876;28;20494;-63
2020/12/01 11:23:41;;;;;;;31.87;18.10;;;5.80;1.00;;;;;;5055633;28;20260;-64
2020/12/01 11:26:11;;;;;;;30.53;18.03;;;5.80;1.00;;;;;;5053357;28;20546;-64
2020/12/01 11:28:36;;;;;;;31.15;18.60;;;5.70;1.00;;;;;;5055280;28;20213;-64
2020/12/01 11:31:02;;;;;;;35.20;19.30;;;5.70;1.00;;;;;;5055774;28;20246;-63
2020/12/01 11:33:27;;;;;;;33.97;19.40;;;5.70;1.00;;;;;;5054517;28;20213;-63
2020/12/01 11:35:53;;;;;;;32.07;19.17;;;5.80;1.00;;;;;;5056312;28;20242;-62
2020/12/01 11:38:18;;;;;;;31.80;18.00;;;6.00;1.00;;;;;;5056038;28;20610;-62
2020/12/01 11:40:44;;;;;;;33.97;17.03;;;5.90;1.00;;;;;;5056656;28;20311;-61
2020/12/01 11:43:09;;;;;;;29.50;18.63;;;5.90;1.00;;;;;;5056031;28;20196;-61
2020/12/01 11:45:35;;;;;;;31.70;17.80;;;5.90;1.00;;;;;;5056434;28;20193;-61
2020/12/01 11:48:00;;;;;;;30.00;17.17;;;6.10;1.00;;;;;;5055201;28;20240;-62
2020/12/01 11:50:26;;;;;;;32.47;18.07;;;5.90;1.00;;;;;;5055714;28;20189;-62
2020/12/01 11:52:51;;;;;;;29.60;16.70;;;6.00;1.00;;;;;;5055911;28;20173;-62
2020/12/01 11:55:17;;;;;;;36.23;18.40;;;6.10;1.00;;;;;;5055811;28;20185;-61
2020/12/01 11:57:42;;;;;;;38.00;19.87;;;5.80;1.00;;;;;;5065733;28;20621;-62
2020/12/01 12:00:09;;;;;;;28.30;17.30;;;5.80;1.00;;;;;;5075721;28;20181;-62
2020/12/01 12:02:34;;;;;;;33.90;18.20;;;5.90;1.00;;;;;;5075891;28;20259;-61
2020/12/01 12:05:00;;;;;;;37.03;18.80;;;5.90;1.00;;;;;;5075651;28;20664;-61
2020/12/01 12:07:25;;;;;;;29.53;18.00;;;6.00;1.00;;;;;;5075752;28;20600;-61
2020/12/01 12:09:51;;;;;;;33.20;17.00;;;6.10;1.00;;;;;;5059954;28;20188;-61
2020/12/01 12:12:18;;;;;;;30.37;17.00;;;6.00;1.00;;;;;;5055472;28;20575;-61
2020/12/01 12:14:43;;;;;;;29.55;17.30;;;5.80;1.00;;;;;;5055017;28;20178;-62
2020/12/01 12:17:09;;;;;;;29.20;16.40;;;5.80;1.00;;;;;;5055233;28;20178;-62
2020/12/01 12:19:34;;;;;;;35.13;18.17;;;6.10;1.00;;;;;;5055603;28;20264;-62
2020/12/01 12:22:00;;;;;;;30.20;16.63;;;6.10;1.00;;;;;;5055474;28;20204;-62
2020/12/01 12:24:25;;;;;;;28.40;16.13;;;6.20;1.00;;;;;;5054718;28;20216;-62
2020/12/01 12:26:50;;;;;;;27.63;15.70;;;6.20;1.00;;;;;;5055637;28;20213;-63
2020/12/01 12:29:16;;;;;;;26.30;16.20;;;6.40;1.00;;;;;;5055250;28;20200;-62
2020/12/01 12:31:42;;;;;;;26.07;15.87;;;6.20;1.00;;;;;;5055469;28;20239;-62
2020/12/01 12:34:07;;;;;;;31.00;16.47;;;6.00;1.00;;;;;;5054802;28;20185;-63
2020/12/01 12:36:33;;;;;;;23.83;14.70;;;6.20;1.00;;;;;;5055083;28;20222;-63
2020/12/01 12:38:58;;;;;;;33.43;18.53;;;6.10;1.00;;;;;;5054900;28;20235;-63
2020/12/01 12:41:25;;;;;;;28.37;15.83;;;6.40;1.00;;;;;;5055140;28;20276;-63
2020/12/01 12:43:51;;;;;;;29.35;17.00;;;6.50;1.00;;;;;;5054993;28;20599;-63
2020/12/01 12:46:16;;;;;;;30.23;16.40;;;6.50;1.00;;;;;;5054919;28;20183;-63
2020/12/01 12:48:42;;;;;;;25.53;15.13;;;6.30;1.00;;;;;;5054902;28;20177;-63
2020/12/01 12:51:08;;;;;;;27.77;15.17;;;6.20;1.00;;;;;;5054748;28;20741;-63
2020/12/01 12:53:34;;;;;;;29.77;16.57;;;6.20;1.00;;;;;;5051616;28;20185;-64
2020/12/01 12:56:00;;;;;;;24.77;14.20;;;6.40;1.00;;;;;;5039044;28;20205;-66
2020/12/01 12:58:25;;;;;;;28.92;15.90;;;6.50;1.00;;;;;;5046111;28;20463;-64
2020/12/01 13:00:51;;;;;;;25.40;15.10;;;6.50;1.00;;;;;;5050508;28;20190;-67
2020/12/01 13:03:17;;;;;;;32.00;15.00;;;6.60;1.00;;;;;;5050820;28;20190;-67
2020/12/01 13:05:42;;;;;;;26.20;15.90;;;6.50;1.00;;;;;;5059913;28;20572;-67
2020/12/01 13:08:08;;;;;;;24.00;14.33;;;6.70;1.00;;;;;;5054268;28;20205;-68
2020/12/01 13:10:34;;;;;;;25.57;16.23;;;6.70;1.00;;;;;;5052730;28;20188;-67
2020/12/01 13:13:00;;;;;;;27.87;16.13;;;6.80;1.00;;;;;;5033329;28;20239;-66
2020/12/01 13:15:26;;;;;;;29.30;16.80;;;6.60;1.00;;;;;;5034383;28;20463;-67
2020/12/01 13:17:52;;;;;;;25.38;14.05;;;6.30;1.00;;;;;;5034520;28;20182;-67
2020/12/01 13:20:24;;;;;;;24.83;14.77;;;6.50;1.00;;;;;;5034165;28;20194;-67
2020/12/01 13:22:50;;;;;;;24.50;14.73;;;6.10;1.00;;;;;;5034284;28;20201;-66
2020/12/01 13:25:16;;;;;;;26.87;15.20;;;6.20;1.00;;;;;;5034724;28;20186;-67
2020/12/01 13:27:41;;;;;;;27.55;15.05;;;6.30;1.00;;;;;;5034128;28;20218;-67
2020/12/01 13:30:09;;;;;;;27.97;15.77;;;6.20;1.00;;;;;;5049148;28;20638;-67
2020/12/01 13:32:34;;;;;;;27.17;16.70;;;6.30;1.00;;;;;;5052995;28;20181;-67
2020/12/01 13:35:01;;;;;;;28.37;15.70;;;6.10;1.00;;;;;;5060726;28;20172;-67
2020/12/01 13:37:27;;;;;;;25.40;15.20;;;5.90;1.00;;;;;;5064296;28;20461;-67